sensor_id;sensor_type;location;lat;lon;timestamp;P1;durP1;ratioP1;P2;durP2;ratioP2
41705;SDS011;27385;51.096;17.190;2024-02-21T00:01:26;19.60;;;3.50;;
41705;SDS011;27385;51.096;17.190;2024-02-21T00:04:17;25.40;;;4.70;;
41705;SDS011;27385;51.096;17.190;2024-02-21T00:07:08;22.60;;;3.10;;
41705;SDS011;27385;51.096;17.190;2024-02-21T00:10:00;19.30;;;3.70;;
41705;SDS011;27385;51.096;17.190;2024-02-21T00:12:51;25.40;;;3.30;;
41705;SDS011;27385;51.096;17.190;2024-02-21T00:15:42;19.20;;;4.10;;
41705;SDS011;27385;51.096;17.190;2024-02-21T00:18:34;17.20;;;3.30;;
41705;SDS011;27385;51.096;17.190;2024-02-21T00:21:25;23.60;;;5.00;;
41705;SDS011;27385;51.096;17.190;2024-02-21T00:24:17;20.90;;;2.60;;
41705;SDS011;27385;51.096;17.190;2024-02-21T00:27:08;22.00;;;2.90;;
41705;SDS011;27385;51.096;17.190;2024-02-21T00:30:01;19.50;;;3.70;;
41705;SDS011;27385;51.096;17.190;2024-02-21T00:32:52;25.00;;;2.80;;
41705;SDS011;27385;51.096;17.190;2024-02-21T00:35:43;15.50;;;2.80;;
41705;SDS011;27385;51.096;17.190;2024-02-21T00:38:35;16.20;;;2.40;;
41705;SDS011;27385;51.096;17.190;2024-02-21T00:41:26;19.10;;;2.30;;
41705;SDS011;27385;51.096;17.190;2024-02-21T00:44:18;28.70;;;3.20;;
41705;SDS011;27385;51.096;17.190;2024-02-21T00:47:09;20.80;;;2.40;;
41705;SDS011;27385;51.096;17.190;2024-02-21T00:50:00;19.60;;;2.10;;
41705;SDS011;27385;51.096;17.190;2024-02-21T00:52:52;22.00;;;3.70;;
41705;SDS011;27385;51.096;17.190;2024-02-21T00:55:46;19.20;;;2.30;;
41705;SDS011;27385;51.096;17.190;2024-02-21T00:58:38;19.10;;;2.40;;
41705;SDS011;27385;51.096;17.190;2024-02-21T01:01:30;18.70;;;2.80;;
41705;SDS011;27385;51.096;17.190;2024-02-21T01:04:21;21.50;;;3.40;;
41705;SDS011;27385;51.096;17.190;2024-02-21T01:07:13;26.20;;;4.00;;
41705;SDS011;27385;51.096;17.190;2024-02-21T01:10:07;20.70;;;4.30;;
41705;SDS011;27385;51.096;17.190;2024-02-21T01:12:59;24.40;;;4.20;;
41705;SDS011;27385;51.096;17.190;2024-02-21T01:15:52;15.60;;;3.20;;
41705;SDS011;27385;51.096;17.190;2024-02-21T01:18:44;19.90;;;3.10;;
41705;SDS011;27385;51.096;17.190;2024-02-21T01:21:35;21.50;;;2.90;;
41705;SDS011;27385;51.096;17.190;2024-02-21T01:24:27;28.90;;;3.00;;
41705;SDS011;27385;51.096;17.190;2024-02-21T01:27:18;15.70;;;2.80;;
41705;SDS011;27385;51.096;17.190;2024-02-21T01:30:10;13.70;;;2.50;;
41705;SDS011;27385;51.096;17.190;2024-02-21T01:33:02;22.10;;;3.00;;
41705;SDS011;27385;51.096;17.190;2024-02-21T01:35:54;20.80;;;2.70;;
41705;SDS011;27385;51.096;17.190;2024-02-21T01:38:45;14.30;;;2.40;;
41705;SDS011;27385;51.096;17.190;2024-02-21T01:41:36;23.40;;;3.80;;
41705;SDS011;27385;51.096;17.190;2024-02-21T01:44:27;22.00;;;3.30;;
41705;SDS011;27385;51.096;17.190;2024-02-21T01:47:19;19.00;;;3.70;;
41705;SDS011;27385;51.096;17.190;2024-02-21T01:50:11;19.90;;;3.40;;
41705;SDS011;27385;51.096;17.190;2024-02-21T01:53:05;18.90;;;3.60;;
41705;SDS011;27385;51.096;17.190;2024-02-21T01:55:57;23.90;;;4.10;;
41705;SDS011;27385;51.096;17.190;2024-02-21T01:58:48;25.10;;;3.00;;
41705;SDS011;27385;51.096;17.190;2024-02-21T02:01:41;17.10;;;2.40;;
41705;SDS011;27385;51.096;17.190;2024-02-21T02:04:33;20.40;;;2.70;;
41705;SDS011;27385;51.096;17.190;2024-02-21T02:07:28;26.50;;;3.30;;
41705;SDS011;27385;51.096;17.190;2024-02-21T02:10:19;22.00;;;2.80;;
41705;SDS011;27385;51.096;17.190;2024-02-21T02:13:10;23.70;;;2.70;;
41705;SDS011;27385;51.096;17.190;2024-02-21T02:16:01;19.70;;;2.50;;
41705;SDS011;27385;51.096;17.190;2024-02-21T02:18:55;19.50;;;4.30;;
41705;SDS011;27385;51.096;17.190;2024-02-21T02:21:53;20.80;;;2.40;;
41705;SDS011;27385;51.096;17.190;2024-02-21T02:24:49;19.20;;;4.20;;
41705;SDS011;27385;51.096;17.190;2024-02-21T02:27:44;22.90;;;2.50;;
41705;SDS011;27385;51.096;17.190;2024-02-21T02:30:36;21.80;;;3.00;;
41705;SDS011;27385;51.096;17.190;2024-02-21T02:33:28;21.10;;;2.70;;
41705;SDS011;27385;51.096;17.190;2024-02-21T02:36:19;26.40;;;4.60;;
41705;SDS011;27385;51.096;17.190;2024-02-21T02:39:10;19.10;;;3.10;;
41705;SDS011;27385;51.096;17.190;2024-02-21T02:42:02;23.90;;;3.40;;
41705;SDS011;27385;51.096;17.190;2024-02-21T02:44:54;19.40;;;3.00;;
41705;SDS011;27385;51.096;17.190;2024-02-21T02:47:46;14.20;;;2.80;;
41705;SDS011;27385;51.096;17.190;2024-02-21T02:50:37;21.90;;;3.00;;
41705;SDS011;27385;51.096;17.190;2024-02-21T02:53:29;18.10;;;3.90;;
41705;SDS011;27385;51.096;17.190;2024-02-21T02:56:20;26.20;;;4.00;;
41705;SDS011;27385;51.096;17.190;2024-02-21T02:59:11;15.60;;;3.70;;
41705;SDS011;27385;51.096;17.190;2024-02-21T03:02:04;19.70;;;3.80;;
41705;SDS011;27385;51.096;17.190;2024-02-21T03:04:55;25.90;;;4.50;;
41705;SDS011;27385;51.096;17.190;2024-02-21T03:07:47;21.50;;;2.80;;
41705;SDS011;27385;51.096;17.190;2024-02-21T03:10:38;16.30;;;2.50;;
41705;SDS011;27385;51.096;17.190;2024-02-21T03:13:30;22.20;;;3.80;;
41705;SDS011;27385;51.096;17.190;2024-02-21T03:16:22;23.10;;;3.30;;
41705;SDS011;27385;51.096;17.190;2024-02-21T03:19:14;16.50;;;2.80;;
41705;SDS011;27385;51.096;17.190;2024-02-21T03:22:06;19.60;;;3.20;;
41705;SDS011;27385;51.096;17.190;2024-02-21T03:24:57;32.80;;;4.00;;
41705;SDS011;27385;51.096;17.190;2024-02-21T03:27:49;27.90;;;5.00;;
41705;SDS011;27385;51.096;17.190;2024-02-21T03:30:40;27.10;;;3.40;;
41705;SDS011;27385;51.096;17.190;2024-02-21T03:33:31;18.50;;;3.30;;
41705;SDS011;27385;51.096;17.190;2024-02-21T03:36:23;21.50;;;3.90;;
41705;SDS011;27385;51.096;17.190;2024-02-21T03:39:14;17.20;;;3.00;;
41705;SDS011;27385;51.096;17.190;2024-02-21T03:42:06;25.50;;;4.70;;
41705;SDS011;27385;51.096;17.190;2024-02-21T03:44:57;18.00;;;3.60;;
41705;SDS011;27385;51.096;17.190;2024-02-21T03:47:48;18.50;;;3.60;;
41705;SDS011;27385;51.096;17.190;2024-02-21T03:50:40;16.90;;;3.40;;
41705;SDS011;27385;51.096;17.190;2024-02-21T03:53:32;18.40;;;3.60;;
41705;SDS011;27385;51.096;17.190;2024-02-21T03:56:23;21.00;;;3.40;;
41705;SDS011;27385;51.096;17.190;2024-02-21T03:59:14;20.10;;;3.90;;
41705;SDS011;27385;51.096;17.190;2024-02-21T04:02:05;19.00;;;3.90;;
41705;SDS011;27385;51.096;17.190;2024-02-21T04:04:57;22.30;;;4.00;;
41705;SDS011;27385;51.096;17.190;2024-02-21T04:07:48;18.10;;;3.10;;
41705;SDS011;27385;51.096;17.190;2024-02-21T04:10:39;15.00;;;3.30;;
41705;SDS011;27385;51.096;17.190;2024-02-21T04:13:30;18.90;;;3.40;;
41705;SDS011;27385;51.096;17.190;2024-02-21T04:16:21;18.90;;;4.10;;
41705;SDS011;27385;51.096;17.190;2024-02-21T04:19:12;16.90;;;3.40;;
41705;SDS011;27385;51.096;17.190;2024-02-21T04:22:03;12.30;;;2.80;;
41705;SDS011;27385;51.096;17.190;2024-02-21T04:24:55;18.10;;;3.40;;
41705;SDS011;27385;51.096;17.190;2024-02-21T04:27:46;16.30;;;3.60;;
41705;SDS011;27385;51.096;17.190;2024-02-21T04:30:37;23.40;;;3.80;;
41705;SDS011;27385;51.096;17.190;2024-02-21T04:33:28;19.00;;;3.80;;
41705;SDS011;27385;51.096;17.190;2024-02-21T04:36:19;20.00;;;4.30;;
41705;SDS011;27385;51.096;17.190;2024-02-21T04:39:11;19.10;;;4.30;;
41705;SDS011;27385;51.096;17.190;2024-02-21T04:42:04;18.50;;;4.90;;
41705;SDS011;27385;51.096;17.190;2024-02-21T04:44:55;21.90;;;4.80;;
41705;SDS011;27385;51.096;17.190;2024-02-21T04:47:46;17.30;;;4.30;;
41705;SDS011;27385;51.096;17.190;2024-02-21T04:50:38;20.40;;;4.40;;
41705;SDS011;27385;51.096;17.190;2024-02-21T04:53:29;24.00;;;4.30;;
41705;SDS011;27385;51.096;17.190;2024-02-21T04:56:21;16.90;;;3.70;;
41705;SDS011;27385;51.096;17.190;2024-02-21T04:59:13;20.80;;;3.90;;
41705;SDS011;27385;51.096;17.190;2024-02-21T05:02:05;20.60;;;5.90;;
41705;SDS011;27385;51.096;17.190;2024-02-21T05:04:56;20.60;;;5.10;;
41705;SDS011;27385;51.096;17.190;2024-02-21T05:07:48;20.10;;;5.30;;
41705;SDS011;27385;51.096;17.190;2024-02-21T05:10:39;16.70;;;5.00;;
41705;SDS011;27385;51.096;17.190;2024-02-21T05:13:30;21.00;;;4.70;;
41705;SDS011;27385;51.096;17.190;2024-02-21T05:19:10;19.30;;;4.70;;
41705;SDS011;27385;51.096;17.190;2024-02-21T05:22:02;19.00;;;4.00;;
41705;SDS011;27385;51.096;17.190;2024-02-21T05:24:53;20.50;;;3.30;;
41705;SDS011;27385;51.096;17.190;2024-02-21T05:27:44;16.80;;;3.50;;
41705;SDS011;27385;51.096;17.190;2024-02-21T05:30:37;22.70;;;3.90;;
41705;SDS011;27385;51.096;17.190;2024-02-21T05:33:28;18.80;;;3.50;;
41705;SDS011;27385;51.096;17.190;2024-02-21T05:36:19;17.20;;;4.00;;
41705;SDS011;27385;51.096;17.190;2024-02-21T05:39:10;20.50;;;4.00;;
41705;SDS011;27385;51.096;17.190;2024-02-21T05:42:02;20.20;;;3.90;;
41705;SDS011;27385;51.096;17.190;2024-02-21T05:44:53;18.90;;;3.90;;
41705;SDS011;27385;51.096;17.190;2024-02-21T05:47:45;21.50;;;4.60;;
41705;SDS011;27385;51.096;17.190;2024-02-21T05:50:36;20.20;;;4.90;;
41705;SDS011;27385;51.096;17.190;2024-02-21T05:53:27;17.50;;;5.00;;
41705;SDS011;27385;51.096;17.190;2024-02-21T05:56:18;20.60;;;4.50;;
41705;SDS011;27385;51.096;17.190;2024-02-21T05:59:09;17.20;;;4.80;;
41705;SDS011;27385;51.096;17.190;2024-02-21T06:02:00;16.10;;;3.70;;
41705;SDS011;27385;51.096;17.190;2024-02-21T06:04:52;15.60;;;4.30;;
41705;SDS011;27385;51.096;17.190;2024-02-21T06:07:43;13.00;;;3.80;;
41705;SDS011;27385;51.096;17.190;2024-02-21T06:10:35;19.60;;;4.30;;
41705;SDS011;27385;51.096;17.190;2024-02-21T06:13:26;21.90;;;4.30;;
41705;SDS011;27385;51.096;17.190;2024-02-21T06:16:17;14.60;;;3.90;;
41705;SDS011;27385;51.096;17.190;2024-02-21T06:19:09;19.90;;;4.80;;
41705;SDS011;27385;51.096;17.190;2024-02-21T06:22:00;19.40;;;3.90;;
41705;SDS011;27385;51.096;17.190;2024-02-21T06:24:55;19.10;;;5.40;;
41705;SDS011;27385;51.096;17.190;2024-02-21T06:27:46;20.20;;;5.00;;
41705;SDS011;27385;51.096;17.190;2024-02-21T06:30:37;18.50;;;4.20;;
41705;SDS011;27385;51.096;17.190;2024-02-21T06:33:29;17.50;;;4.30;;
41705;SDS011;27385;51.096;17.190;2024-02-21T06:36:20;18.40;;;4.30;;
41705;SDS011;27385;51.096;17.190;2024-02-21T06:39:11;25.50;;;4.60;;
41705;SDS011;27385;51.096;17.190;2024-02-21T06:42:02;19.00;;;4.70;;
41705;SDS011;27385;51.096;17.190;2024-02-21T06:44:53;20.10;;;5.40;;
41705;SDS011;27385;51.096;17.190;2024-02-21T06:47:45;20.40;;;4.20;;
41705;SDS011;27385;51.096;17.190;2024-02-21T06:50:36;29.80;;;7.40;;
41705;SDS011;27385;51.096;17.190;2024-02-21T06:53:27;23.40;;;6.60;;
41705;SDS011;27385;51.096;17.190;2024-02-21T06:56:18;21.20;;;5.60;;
41705;SDS011;27385;51.096;17.190;2024-02-21T06:59:09;18.80;;;5.40;;
41705;SDS011;27385;51.096;17.190;2024-02-21T07:02:03;20.50;;;4.80;;
41705;SDS011;27385;51.096;17.190;2024-02-21T07:04:54;24.80;;;5.10;;
41705;SDS011;27385;51.096;17.190;2024-02-21T07:07:45;18.80;;;3.90;;
41705;SDS011;27385;51.096;17.190;2024-02-21T07:10:36;19.20;;;4.70;;
41705;SDS011;27385;51.096;17.190;2024-02-21T07:13:26;22.40;;;3.80;;
41705;SDS011;27385;51.096;17.190;2024-02-21T07:16:17;21.50;;;3.70;;
41705;SDS011;27385;51.096;17.190;2024-02-21T07:19:09;24.00;;;4.00;;
41705;SDS011;27385;51.096;17.190;2024-02-21T07:22:00;24.20;;;3.80;;
41705;SDS011;27385;51.096;17.190;2024-02-21T07:24:52;19.40;;;4.90;;
41705;SDS011;27385;51.096;17.190;2024-02-21T07:27:43;21.20;;;4.10;;
41705;SDS011;27385;51.096;17.190;2024-02-21T07:30:35;26.20;;;5.00;;
41705;SDS011;27385;51.096;17.190;2024-02-21T07:33:26;22.90;;;5.60;;
41705;SDS011;27385;51.096;17.190;2024-02-21T07:36:28;23.20;;;6.10;;
41705;SDS011;27385;51.096;17.190;2024-02-21T07:39:19;18.50;;;4.30;;
41705;SDS011;27385;51.096;17.190;2024-02-21T07:42:11;20.90;;;3.80;;
41705;SDS011;27385;51.096;17.190;2024-02-21T07:45:02;23.20;;;4.40;;
41705;SDS011;27385;51.096;17.190;2024-02-21T07:47:54;26.60;;;5.30;;
41705;SDS011;27385;51.096;17.190;2024-02-21T07:50:44;17.50;;;4.60;;
41705;SDS011;27385;51.096;17.190;2024-02-21T07:53:35;16.80;;;5.00;;
41705;SDS011;27385;51.096;17.190;2024-02-21T07:56:32;21.50;;;4.40;;
41705;SDS011;27385;51.096;17.190;2024-02-21T07:59:23;19.90;;;4.40;;
41705;SDS011;27385;51.096;17.190;2024-02-21T08:02:16;21.10;;;5.20;;
41705;SDS011;27385;51.096;17.190;2024-02-21T08:05:07;22.20;;;4.50;;
41705;SDS011;27385;51.096;17.190;2024-02-21T08:08:00;19.80;;;4.40;;
41705;SDS011;27385;51.096;17.190;2024-02-21T08:10:51;22.80;;;5.60;;
41705;SDS011;27385;51.096;17.190;2024-02-21T08:13:43;18.30;;;5.10;;
41705;SDS011;27385;51.096;17.190;2024-02-21T08:16:34;26.60;;;6.30;;
41705;SDS011;27385;51.096;17.190;2024-02-21T08:19:25;18.20;;;5.30;;
41705;SDS011;27385;51.096;17.190;2024-02-21T08:22:17;24.70;;;6.60;;
41705;SDS011;27385;51.096;17.190;2024-02-21T08:25:07;24.30;;;7.10;;
41705;SDS011;27385;51.096;17.190;2024-02-21T08:27:59;24.10;;;6.40;;
41705;SDS011;27385;51.096;17.190;2024-02-21T08:30:50;27.20;;;7.20;;
41705;SDS011;27385;51.096;17.190;2024-02-21T08:33:41;27.20;;;7.50;;
41705;SDS011;27385;51.096;17.190;2024-02-21T08:36:32;25.10;;;7.10;;
41705;SDS011;27385;51.096;17.190;2024-02-21T08:39:24;28.00;;;7.80;;
41705;SDS011;27385;51.096;17.190;2024-02-21T08:42:17;23.90;;;7.50;;
41705;SDS011;27385;51.096;17.190;2024-02-21T08:45:09;22.20;;;7.10;;
41705;SDS011;27385;51.096;17.190;2024-02-21T08:48:01;25.70;;;7.00;;
41705;SDS011;27385;51.096;17.190;2024-02-21T08:50:53;24.90;;;7.20;;
41705;SDS011;27385;51.096;17.190;2024-02-21T08:53:45;23.60;;;6.70;;
41705;SDS011;27385;51.096;17.190;2024-02-21T08:56:37;26.60;;;6.60;;
41705;SDS011;27385;51.096;17.190;2024-02-21T08:59:28;26.30;;;6.20;;
41705;SDS011;27385;51.096;17.190;2024-02-21T09:02:19;25.70;;;6.00;;
41705;SDS011;27385;51.096;17.190;2024-02-21T09:05:11;25.20;;;6.00;;
41705;SDS011;27385;51.096;17.190;2024-02-21T09:08:04;23.90;;;6.00;;
41705;SDS011;27385;51.096;17.190;2024-02-21T09:10:55;20.70;;;6.30;;
41705;SDS011;27385;51.096;17.190;2024-02-21T09:13:46;25.70;;;6.70;;
41705;SDS011;27385;51.096;17.190;2024-02-21T09:16:37;24.70;;;6.20;;
41705;SDS011;27385;51.096;17.190;2024-02-21T09:19:29;23.10;;;6.00;;
41705;SDS011;27385;51.096;17.190;2024-02-21T09:22:19;22.80;;;5.40;;
41705;SDS011;27385;51.096;17.190;2024-02-21T09:25:11;20.40;;;6.00;;
41705;SDS011;27385;51.096;17.190;2024-02-21T09:28:02;22.20;;;6.50;;
41705;SDS011;27385;51.096;17.190;2024-02-21T09:30:54;22.20;;;5.70;;
41705;SDS011;27385;51.096;17.190;2024-02-21T09:33:46;24.10;;;6.10;;
41705;SDS011;27385;51.096;17.190;2024-02-21T09:36:37;20.80;;;5.30;;
41705;SDS011;27385;51.096;17.190;2024-02-21T09:39:29;24.20;;;6.90;;
41705;SDS011;27385;51.096;17.190;2024-02-21T09:42:21;18.80;;;4.80;;
41705;SDS011;27385;51.096;17.190;2024-02-21T09:45:20;22.00;;;6.00;;
41705;SDS011;27385;51.096;17.190;2024-02-21T09:48:15;24.50;;;5.60;;
41705;SDS011;27385;51.096;17.190;2024-02-21T09:51:14;21.80;;;6.80;;
41705;SDS011;27385;51.096;17.190;2024-02-21T09:54:05;25.60;;;6.00;;
41705;SDS011;27385;51.096;17.190;2024-02-21T09:56:58;27.50;;;6.30;;
41705;SDS011;27385;51.096;17.190;2024-02-21T09:59:50;25.60;;;6.90;;
41705;SDS011;27385;51.096;17.190;2024-02-21T10:02:41;25.70;;;7.50;;
41705;SDS011;27385;51.096;17.190;2024-02-21T10:05:32;22.50;;;6.10;;
41705;SDS011;27385;51.096;17.190;2024-02-21T10:08:23;21.50;;;6.60;;
41705;SDS011;27385;51.096;17.190;2024-02-21T10:11:23;26.60;;;7.60;;
41705;SDS011;27385;51.096;17.190;2024-02-21T10:14:14;23.40;;;7.00;;
41705;SDS011;27385;51.096;17.190;2024-02-21T10:17:06;20.40;;;6.70;;
41705;SDS011;27385;51.096;17.190;2024-02-21T10:20:07;26.10;;;6.50;;
41705;SDS011;27385;51.096;17.190;2024-02-21T10:23:01;26.30;;;5.80;;
41705;SDS011;27385;51.096;17.190;2024-02-21T10:25:56;22.00;;;6.20;;
41705;SDS011;27385;51.096;17.190;2024-02-21T10:28:56;24.30;;;7.00;;
41705;SDS011;27385;51.096;17.190;2024-02-21T10:31:47;28.10;;;7.40;;
41705;SDS011;27385;51.096;17.190;2024-02-21T10:34:38;23.80;;;6.60;;
41705;SDS011;27385;51.096;17.190;2024-02-21T10:37:30;26.20;;;7.70;;
41705;SDS011;27385;51.096;17.190;2024-02-21T10:40:21;22.10;;;5.80;;
41705;SDS011;27385;51.096;17.190;2024-02-21T10:43:13;22.60;;;7.30;;
41705;SDS011;27385;51.096;17.190;2024-02-21T10:46:07;28.50;;;6.40;;
41705;SDS011;27385;51.096;17.190;2024-02-21T10:49:01;25.60;;;6.80;;
41705;SDS011;27385;51.096;17.190;2024-02-21T10:51:58;18.80;;;5.60;;
41705;SDS011;27385;51.096;17.190;2024-02-21T10:55:04;22.10;;;5.90;;
41705;SDS011;27385;51.096;17.190;2024-02-21T10:57:59;19.60;;;5.60;;
41705;SDS011;27385;51.096;17.190;2024-02-21T11:00:51;19.20;;;5.60;;
41705;SDS011;27385;51.096;17.190;2024-02-21T11:03:42;20.80;;;6.50;;
41705;SDS011;27385;51.096;17.190;2024-02-21T11:06:35;31.80;;;7.10;;
41705;SDS011;27385;51.096;17.190;2024-02-21T11:09:30;24.20;;;5.90;;
41705;SDS011;27385;51.096;17.190;2024-02-21T11:12:22;18.60;;;5.80;;
41705;SDS011;27385;51.096;17.190;2024-02-21T11:15:15;25.20;;;6.60;;
41705;SDS011;27385;51.096;17.190;2024-02-21T11:18:06;24.80;;;6.70;;
41705;SDS011;27385;51.096;17.190;2024-02-21T11:20:57;23.00;;;5.50;;
41705;SDS011;27385;51.096;17.190;2024-02-21T11:23:55;22.40;;;5.90;;
41705;SDS011;27385;51.096;17.190;2024-02-21T11:26:46;21.40;;;5.70;;
41705;SDS011;27385;51.096;17.190;2024-02-21T11:29:44;20.00;;;5.70;;
41705;SDS011;27385;51.096;17.190;2024-02-21T11:32:34;21.70;;;6.30;;
41705;SDS011;27385;51.096;17.190;2024-02-21T11:35:26;18.20;;;5.80;;
41705;SDS011;27385;51.096;17.190;2024-02-21T11:38:22;21.60;;;6.10;;
41705;SDS011;27385;51.096;17.190;2024-02-21T11:41:13;17.80;;;5.10;;
41705;SDS011;27385;51.096;17.190;2024-02-21T11:46:53;22.10;;;5.90;;
41705;SDS011;27385;51.096;17.190;2024-02-21T11:49:44;22.60;;;7.80;;
41705;SDS011;27385;51.096;17.190;2024-02-21T11:52:37;26.50;;;8.50;;
41705;SDS011;27385;51.096;17.190;2024-02-21T11:55:28;32.20;;;11.50;;
41705;SDS011;27385;51.096;17.190;2024-02-21T11:58:19;26.50;;;10.20;;
41705;SDS011;27385;51.096;17.190;2024-02-21T12:01:10;26.20;;;10.90;;
41705;SDS011;27385;51.096;17.190;2024-02-21T12:04:01;32.80;;;12.10;;
41705;SDS011;27385;51.096;17.190;2024-02-21T12:06:53;31.20;;;10.50;;
41705;SDS011;27385;51.096;17.190;2024-02-21T12:09:44;31.20;;;10.40;;
41705;SDS011;27385;51.096;17.190;2024-02-21T12:12:35;23.90;;;8.40;;
41705;SDS011;27385;51.096;17.190;2024-02-21T12:15:26;24.40;;;7.80;;
41705;SDS011;27385;51.096;17.190;2024-02-21T12:18:17;21.80;;;7.10;;
41705;SDS011;27385;51.096;17.190;2024-02-21T12:21:08;20.40;;;6.30;;
41705;SDS011;27385;51.096;17.190;2024-02-21T12:24:00;17.80;;;5.90;;
41705;SDS011;27385;51.096;17.190;2024-02-21T12:27:00;19.30;;;6.40;;
41705;SDS011;27385;51.096;17.190;2024-02-21T12:29:51;17.60;;;5.10;;
41705;SDS011;27385;51.096;17.190;2024-02-21T12:32:42;17.20;;;5.30;;
41705;SDS011;27385;51.096;17.190;2024-02-21T12:35:33;16.00;;;4.70;;
41705;SDS011;27385;51.096;17.190;2024-02-21T12:38:24;17.60;;;4.80;;
41705;SDS011;27385;51.096;17.190;2024-02-21T12:41:15;18.80;;;4.20;;
41705;SDS011;27385;51.096;17.190;2024-02-21T12:44:06;20.70;;;5.30;;
41705;SDS011;27385;51.096;17.190;2024-02-21T12:46:59;17.20;;;4.10;;
41705;SDS011;27385;51.096;17.190;2024-02-21T12:49:50;19.00;;;4.20;;
41705;SDS011;27385;51.096;17.190;2024-02-21T12:52:41;16.40;;;4.30;;
41705;SDS011;27385;51.096;17.190;2024-02-21T12:55:32;13.30;;;4.80;;
41705;SDS011;27385;51.096;17.190;2024-02-21T12:58:23;15.10;;;3.90;;
41705;SDS011;27385;51.096;17.190;2024-02-21T13:01:14;19.10;;;4.40;;
41705;SDS011;27385;51.096;17.190;2024-02-21T13:04:06;15.90;;;3.70;;
41705;SDS011;27385;51.096;17.190;2024-02-21T13:06:57;15.30;;;4.50;;
41705;SDS011;27385;51.096;17.190;2024-02-21T13:09:48;14.20;;;4.00;;
41705;SDS011;27385;51.096;17.190;2024-02-21T13:12:39;13.20;;;3.90;;
41705;SDS011;27385;51.096;17.190;2024-02-21T13:15:30;12.40;;;4.00;;
41705;SDS011;27385;51.096;17.190;2024-02-21T13:18:22;13.00;;;3.40;;
41705;SDS011;27385;51.096;17.190;2024-02-21T13:21:13;10.00;;;2.60;;
41705;SDS011;27385;51.096;17.190;2024-02-21T13:24:05;13.20;;;3.30;;
41705;SDS011;27385;51.096;17.190;2024-02-21T13:26:56;15.40;;;3.00;;
41705;SDS011;27385;51.096;17.190;2024-02-21T13:29:47;15.30;;;3.00;;
41705;SDS011;27385;51.096;17.190;2024-02-21T13:32:38;14.70;;;3.30;;
41705;SDS011;27385;51.096;17.190;2024-02-21T13:35:30;11.70;;;2.50;;
41705;SDS011;27385;51.096;17.190;2024-02-21T13:38:24;17.30;;;4.20;;
41705;SDS011;27385;51.096;17.190;2024-02-21T13:41:16;12.80;;;3.10;;
41705;SDS011;27385;51.096;17.190;2024-02-21T13:44:07;13.40;;;3.30;;
41705;SDS011;27385;51.096;17.190;2024-02-21T13:46:58;14.60;;;4.30;;
41705;SDS011;27385;51.096;17.190;2024-02-21T13:49:49;16.40;;;3.30;;
41705;SDS011;27385;51.096;17.190;2024-02-21T13:52:40;14.10;;;3.00;;
41705;SDS011;27385;51.096;17.190;2024-02-21T13:55:31;11.90;;;3.20;;
41705;SDS011;27385;51.096;17.190;2024-02-21T13:58:23;19.00;;;4.00;;
41705;SDS011;27385;51.096;17.190;2024-02-21T14:01:14;11.20;;;3.50;;
41705;SDS011;27385;51.096;17.190;2024-02-21T14:04:06;15.20;;;3.70;;
41705;SDS011;27385;51.096;17.190;2024-02-21T14:06:57;14.50;;;4.40;;
41705;SDS011;27385;51.096;17.190;2024-02-21T14:09:48;20.70;;;5.10;;
41705;SDS011;27385;51.096;17.190;2024-02-21T14:12:39;14.20;;;3.90;;
41705;SDS011;27385;51.096;17.190;2024-02-21T14:15:31;16.80;;;4.50;;
41705;SDS011;27385;51.096;17.190;2024-02-21T14:18:22;18.50;;;4.20;;
41705;SDS011;27385;51.096;17.190;2024-02-21T14:21:13;16.40;;;3.90;;
41705;SDS011;27385;51.096;17.190;2024-02-21T14:24:05;16.90;;;4.20;;
41705;SDS011;27385;51.096;17.190;2024-02-21T14:26:56;18.30;;;4.30;;
41705;SDS011;27385;51.096;17.190;2024-02-21T14:29:48;21.10;;;4.60;;
41705;SDS011;27385;51.096;17.190;2024-02-21T14:32:40;16.10;;;4.00;;
41705;SDS011;27385;51.096;17.190;2024-02-21T14:35:34;23.00;;;5.10;;
41705;SDS011;27385;51.096;17.190;2024-02-21T14:38:25;24.50;;;4.20;;
41705;SDS011;27385;51.096;17.190;2024-02-21T14:41:17;19.90;;;4.70;;
41705;SDS011;27385;51.096;17.190;2024-02-21T14:44:08;21.40;;;4.50;;
41705;SDS011;27385;51.096;17.190;2024-02-21T14:46:59;17.40;;;3.60;;
41705;SDS011;27385;51.096;17.190;2024-02-21T14:49:51;21.80;;;3.60;;
41705;SDS011;27385;51.096;17.190;2024-02-21T14:52:43;12.30;;;3.30;;
41705;SDS011;27385;51.096;17.190;2024-02-21T14:55:35;15.40;;;3.80;;
41705;SDS011;27385;51.096;17.190;2024-02-21T14:58:29;14.00;;;3.10;;
41705;SDS011;27385;51.096;17.190;2024-02-21T15:01:21;17.80;;;3.80;;
41705;SDS011;27385;51.096;17.190;2024-02-21T15:04:12;16.80;;;4.30;;
41705;SDS011;27385;51.096;17.190;2024-02-21T15:07:03;19.00;;;4.30;;
41705;SDS011;27385;51.096;17.190;2024-02-21T15:09:57;18.00;;;4.60;;
41705;SDS011;27385;51.096;17.190;2024-02-21T15:12:48;18.00;;;5.00;;
41705;SDS011;27385;51.096;17.190;2024-02-21T15:15:39;13.70;;;3.60;;
41705;SDS011;27385;51.096;17.190;2024-02-21T15:18:30;15.10;;;4.30;;
41705;SDS011;27385;51.096;17.190;2024-02-21T15:21:25;14.70;;;4.60;;
41705;SDS011;27385;51.096;17.190;2024-02-21T15:24:16;22.60;;;6.30;;
41705;SDS011;27385;51.096;17.190;2024-02-21T15:27:08;21.80;;;5.70;;
41705;SDS011;27385;51.096;17.190;2024-02-21T15:29:59;21.00;;;6.20;;
41705;SDS011;27385;51.096;17.190;2024-02-21T15:32:53;23.30;;;7.20;;
41705;SDS011;27385;51.096;17.190;2024-02-21T15:35:49;19.10;;;7.40;;
41705;SDS011;27385;51.096;17.190;2024-02-21T15:38:41;24.50;;;7.50;;
41705;SDS011;27385;51.096;17.190;2024-02-21T15:41:32;24.20;;;8.00;;
41705;SDS011;27385;51.096;17.190;2024-02-21T15:44:23;17.50;;;5.80;;
41705;SDS011;27385;51.096;17.190;2024-02-21T15:47:14;23.70;;;7.70;;
41705;SDS011;27385;51.096;17.190;2024-02-21T15:50:08;20.30;;;6.80;;
41705;SDS011;27385;51.096;17.190;2024-02-21T15:52:59;20.90;;;6.10;;
41705;SDS011;27385;51.096;17.190;2024-02-21T15:55:51;22.30;;;6.40;;
41705;SDS011;27385;51.096;17.190;2024-02-21T15:58:42;20.70;;;6.70;;
41705;SDS011;27385;51.096;17.190;2024-02-21T16:01:33;22.80;;;7.60;;
41705;SDS011;27385;51.096;17.190;2024-02-21T16:04:24;22.30;;;8.10;;
41705;SDS011;27385;51.096;17.190;2024-02-21T16:07:17;33.80;;;9.80;;
41705;SDS011;27385;51.096;17.190;2024-02-21T16:10:09;26.70;;;7.70;;
41705;SDS011;27385;51.096;17.190;2024-02-21T16:13:00;30.30;;;10.30;;
41705;SDS011;27385;51.096;17.190;2024-02-21T16:15:51;25.60;;;7.90;;
41705;SDS011;27385;51.096;17.190;2024-02-21T16:18:42;28.70;;;9.70;;
41705;SDS011;27385;51.096;17.190;2024-02-21T16:21:34;27.10;;;9.90;;
41705;SDS011;27385;51.096;17.190;2024-02-21T16:24:25;28.90;;;11.30;;
41705;SDS011;27385;51.096;17.190;2024-02-21T16:27:17;28.90;;;12.70;;
41705;SDS011;27385;51.096;17.190;2024-02-21T16:30:09;37.70;;;13.90;;
41705;SDS011;27385;51.096;17.190;2024-02-21T16:33:00;38.90;;;13.90;;
41705;SDS011;27385;51.096;17.190;2024-02-21T16:35:51;35.10;;;12.30;;
41705;SDS011;27385;51.096;17.190;2024-02-21T16:38:42;29.90;;;12.20;;
41705;SDS011;27385;51.096;17.190;2024-02-21T16:41:34;31.50;;;12.30;;
41705;SDS011;27385;51.096;17.190;2024-02-21T16:44:24;32.60;;;10.90;;
41705;SDS011;27385;51.096;17.190;2024-02-21T16:47:15;28.00;;;10.60;;
41705;SDS011;27385;51.096;17.190;2024-02-21T16:50:08;27.50;;;8.90;;